createdAt,value
2023-05-06T00:01:00.581Z,100371.22
2023-05-06T00:02:05.116Z,100372.81
2023-05-06T00:03:09.472Z,100369.31
2023-05-06T00:04:11.804Z,100368.64
2023-05-06T00:05:15.496Z,100368.64
2023-05-06T00:06:17.911Z,100376.31
2023-05-06T00:07:21.019Z,100369.55
2023-05-06T00:08:23.307Z,100374.76
2023-05-06T00:09:27.664Z,100374.64
2023-05-06T00:10:30.006Z,100368.67
2023-05-06T00:11:32.658Z,100366.05
2023-05-06T00:12:35.510Z,100365.85
2023-05-06T00:13:38.178Z,100367.60
2023-05-06T00:14:40.461Z,100366.73
2023-05-06T00:15:42.767Z,100369.19
2023-05-06T00:16:45.431Z,100370.02
2023-05-06T00:17:47.767Z,100374.23
2023-05-06T00:18:50.088Z,100372.53
2023-05-06T00:19:52.521Z,100370.82
2023-05-06T00:20:55.474Z,100379.66
2023-05-06T00:21:58.616Z,100379.66
2023-05-06T00:23:01.014Z,100379.53
2023-05-06T00:24:03.619Z,100381.41
2023-05-06T00:25:06.813Z,100382.20
2023-05-06T00:26:10.331Z,100377.87
2023-05-06T00:27:12.874Z,100380.45
2023-05-06T00:28:15.309Z,100377.03
2023-05-06T00:29:17.761Z,100381.41
2023-05-06T00:30:20.203Z,100382.40
2023-05-06T00:31:22.681Z,100385.78
2023-05-06T00:32:25.079Z,100388.45
2023-05-06T00:33:27.129Z,100385.06
2023-05-06T00:34:29.627Z,100397.03
2023-05-06T00:35:31.992Z,100393.58
2023-05-06T00:36:35.822Z,100388.33
2023-05-06T00:37:38.365Z,100392.86
2023-05-06T00:38:40.699Z,100391.98
2023-05-06T00:39:43.335Z,100392.78
2023-05-06T00:40:46.425Z,100386.69
2023-05-06T00:41:49.448Z,100394.41
2023-05-06T00:42:51.704Z,100392.81
2023-05-06T00:43:54.231Z,100399.09
2023-05-06T00:44:56.566Z,100400.95
2023-05-06T00:45:59.549Z,100401.05
2023-05-06T00:47:02.271Z,100403.64
2023-05-06T00:48:06.188Z,100411.28
2023-05-06T00:49:09.137Z,100410.27
2023-05-06T00:50:12.230Z,100411.14
2023-05-06T00:51:15.049Z,100408.44
2023-05-06T00:52:19.192Z,100411.94
2023-05-06T00:53:23.436Z,100405.93
2023-05-06T00:54:26.617Z,100407.64
2023-05-06T00:55:30.487Z,100412.73
2023-05-06T00:56:32.988Z,100412.81
2023-05-06T00:57:35.815Z,100409.50
2023-05-06T00:58:38.388Z,100417.47
2023-05-06T00:59:40.720Z,100415.61
2023-05-06T01:00:44.147Z,100414.67
2023-05-06T01:01:46.799Z,100416.83
2023-05-06T01:02:49.288Z,100420.92
2023-05-06T01:03:54.827Z,100413.14
2023-05-06T01:04:57.978Z,100414.84
2023-05-06T01:06:16.404Z,100416.48
2023-05-06T01:07:31.377Z,100420.85
2023-05-06T01:08:46.366Z,100418.30
2023-05-06T01:10:04.983Z,100421.72
2023-05-06T01:11:26.065Z,100416.55
2023-05-06T01:12:56.074Z,100414.84
2023-05-06T01:14:02.065Z,100414.98
2023-05-06T01:16:41.606Z,100405.13
2023-05-06T01:17:46.676Z,100406.22
2023-05-06T01:18:51.318Z,100407.93
2023-05-06T01:19:57.778Z,100408.73
2023-05-06T01:21:01.376Z,100405.31
2023-05-06T01:22:06.605Z,100409.81
2023-05-06T01:23:12.458Z,100403.81
2023-05-06T01:24:14.948Z,100406.26
2023-05-06T01:25:21.465Z,100409.61
2023-05-06T01:26:25.770Z,100411.39
2023-05-06T01:27:28.088Z,100414.78
2023-05-06T01:28:30.306Z,100408.00
2023-05-06T01:29:35.119Z,100419.11
2023-05-06T01:30:59.252Z,100428.53
2023-05-06T01:32:23.205Z,100420.74
2023-05-06T01:33:41.381Z,100419.14
2023-05-06T01:34:47.208Z,100414.88
2023-05-06T01:35:59.584Z,100415.65
2023-05-06T01:37:08.243Z,100417.25
2023-05-06T01:38:31.787Z,100412.92
2023-05-06T01:39:35.491Z,100421.41
2023-05-06T01:40:41.402Z,100417.94
2023-05-06T01:41:46.371Z,100424.02
2023-05-06T01:42:50.217Z,100424.09
2023-05-06T01:43:54.128Z,100418.30
2023-05-06T01:44:58.465Z,100421.66
2023-05-06T01:46:02.476Z,100422.63
2023-05-06T01:47:08.380Z,100433.80
2023-05-06T01:48:11.888Z,100430.28
2023-05-06T01:49:16.667Z,100436.05
2023-05-06T01:50:19.316Z,100429.04
2023-05-06T01:51:22.002Z,100433.46
2023-05-06T01:52:26.119Z,100439.47
2023-05-06T01:53:29.132Z,100437.01
2023-05-06T01:54:31.489Z,100432.66
2023-05-06T01:55:34.429Z,100437.76
2023-05-06T01:56:36.920Z,100446.38
2023-05-06T01:57:39.394Z,100443.05
2023-05-06T01:58:42.357Z,100448.27
2023-05-06T01:59:44.803Z,100441.39
2023-05-06T02:00:47.098Z,100448.36
2023-05-06T02:01:49.842Z,100444.99
2023-05-06T02:02:52.614Z,100444.94
2023-05-06T02:03:55.818Z,100443.31
2023-05-06T02:04:58.799Z,100450.21
2023-05-06T02:06:01.217Z,100453.58
2023-05-06T02:07:05.185Z,100451.75
2023-05-06T02:08:07.550Z,100451.11
2023-05-06T02:09:09.878Z,100457.09
2023-05-06T02:10:14.260Z,100451.02
2023-05-06T02:11:18.711Z,100451.81
2023-05-06T02:12:22.168Z,100450.01
2023-05-06T02:13:24.755Z,100452.53
2023-05-06T02:14:28.306Z,100456.77
2023-05-06T02:15:30.856Z,100459.44
2023-05-06T02:16:33.535Z,100455.32
2023-05-06T02:17:37.227Z,100457.81
2023-05-06T02:18:40.889Z,100451.75
2023-05-06T02:19:43.378Z,100450.04
2023-05-06T02:20:45.792Z,100455.09
2023-05-06T02:21:51.412Z,100446.53
2023-05-06T02:22:53.832Z,100449.02
2023-05-06T02:23:57.720Z,100459.26
2023-05-06T02:25:01.003Z,100448.77
2023-05-06T02:26:03.930Z,100455.67
2023-05-06T02:27:06.348Z,100461.69
2023-05-06T02:28:08.715Z,100469.52
2023-05-06T02:29:11.043Z,100465.32
2023-05-06T02:30:14.226Z,100467.23
2023-05-06T02:31:16.882Z,100473.30
2023-05-06T02:32:19.358Z,100471.68
2023-05-06T02:33:22.312Z,100470.02
2023-05-06T02:34:24.705Z,100469.91
2023-05-06T02:35:27.634Z,100473.39
2023-05-06T02:36:30.188Z,100474.20
2023-05-06T02:37:32.981Z,100477.56
2023-05-06T02:38:36.406Z,100472.41
2023-05-06T02:39:38.830Z,100474.20
2023-05-06T02:40:41.359Z,100477.66
2023-05-06T02:41:43.663Z,100485.48
2023-05-06T02:42:46.782Z,100477.73
2023-05-06T02:43:49.243Z,100481.19
2023-05-06T02:44:51.878Z,100473.30
2023-05-06T02:45:54.679Z,100485.40
2023-05-06T02:46:57.320Z,100484.50
2023-05-06T02:48:00.822Z,100481.86
2023-05-06T02:49:03.283Z,100480.09
2023-05-06T02:50:06.510Z,100484.44
2023-05-06T02:51:08.892Z,100484.59
2023-05-06T02:52:11.143Z,100479.53
2023-05-06T02:53:13.395Z,100476.84
2023-05-06T02:54:15.663Z,100485.41
2023-05-06T02:55:18.907Z,100485.28
2023-05-06T02:56:21.394Z,100486.22
2023-05-06T02:57:23.903Z,100486.22
2023-05-06T02:58:26.242Z,100475.80
2023-05-06T02:59:29.088Z,100478.35
2023-05-06T03:00:31.537Z,100477.52
2023-05-06T03:01:34.003Z,100475.74
2023-05-06T03:02:36.604Z,100485.98
2023-05-06T03:03:38.939Z,100479.05
2023-05-06T03:04:41.390Z,100487.58
2023-05-06T03:05:43.867Z,100484.93
2023-05-06T03:06:46.104Z,100489.13
2023-05-06T03:07:48.528Z,100490.06
2023-05-06T03:08:50.927Z,100484.91
2023-05-06T03:09:53.279Z,100485.64
2023-05-06T03:10:56.430Z,100487.36
2023-05-06T03:11:59.241Z,100479.64
2023-05-06T03:13:02.013Z,100491.72
2023-05-06T03:14:05.343Z,100490.09
2023-05-06T03:15:08.950Z,100490.09
2023-05-06T03:16:13.641Z,100500.52
2023-05-06T03:17:17.677Z,100515.23
2023-05-06T03:18:20.283Z,100515.34
2023-05-06T03:19:22.671Z,100514.39
2023-05-06T03:20:24.888Z,100510.06
2023-05-06T03:21:29.444Z,100517.90
2023-05-06T03:22:31.812Z,100512.79
2023-05-06T03:23:34.081Z,100516.97
2023-05-06T03:24:36.480Z,100518.59
2023-05-06T03:25:39.856Z,100529.77
2023-05-06T03:26:43.205Z,100523.82
2023-05-06T03:27:46.765Z,100530.78
2023-05-06T03:28:50.934Z,100528.28
2023-05-06T03:29:55.282Z,100528.26
2023-05-06T03:30:58.704Z,100527.44
2023-05-06T03:32:04.729Z,100524.02
2023-05-06T03:33:08.908Z,100529.06
2023-05-06T03:34:11.427Z,100534.23
2023-05-06T03:35:14.416Z,100524.80
2023-05-06T03:36:17.899Z,100529.16
2023-05-06T03:37:21.274Z,100530.78
2023-05-06T03:38:25.540Z,100535.95
2023-05-06T03:39:29.606Z,100530.72
2023-05-06T03:40:33.504Z,100539.17
2023-05-06T03:41:36.089Z,100542.60
2023-05-06T03:42:39.999Z,100559.81
2023-05-06T03:43:43.289Z,100557.14
2023-05-06T03:44:47.190Z,100550.27
2023-05-06T03:45:51.006Z,100545.91
2023-05-06T03:46:53.833Z,100549.33
2023-05-06T03:47:58.472Z,100545.91
2023-05-06T03:49:02.288Z,100539.81
2023-05-06T03:50:05.988Z,100540.62
2023-05-06T03:51:08.936Z,100538.78
2023-05-06T03:52:11.544Z,100540.42
2023-05-06T03:53:15.917Z,100549.86
2023-05-06T03:54:19.588Z,100545.50
2023-05-06T03:55:22.658Z,100547.38
2023-05-06T03:56:25.412Z,100550.77
2023-05-06T03:57:28.913Z,100549.80
2023-05-06T03:58:31.787Z,100551.38
2023-05-06T03:59:34.857Z,100552.25
2023-05-06T04:00:38.253Z,100558.52
2023-05-06T04:01:41.412Z,100558.55
2023-05-06T04:02:44.651Z,100555.81
2023-05-06T04:03:48.885Z,100561.78
2023-05-06T04:04:51.900Z,100559.04
2023-05-06T04:05:54.259Z,100562.46
2023-05-06T04:06:59.199Z,100554.00
2023-05-06T04:08:01.522Z,100567.95
2023-05-06T04:09:05.690Z,100561.32
2023-05-06T04:10:09.490Z,100560.56
2023-05-06T04:11:12.837Z,100555.28
2023-05-06T04:12:15.185Z,100549.15
2023-05-06T04:13:17.902Z,100547.38
2023-05-06T04:14:22.101Z,100543.98
2023-05-06T04:15:24.782Z,100544.05
2023-05-06T04:16:27.422Z,100545.69
2023-05-06T04:17:31.240Z,100553.45
2023-05-06T04:18:33.856Z,100554.31
2023-05-06T04:19:38.021Z,100554.38
2023-05-06T04:20:41.051Z,100556.18
2023-05-06T04:21:43.804Z,100559.58
2023-05-06T04:22:47.098Z,100563.94
2023-05-06T04:23:49.652Z,100563.00
2023-05-06T04:24:53.651Z,100563.00
2023-05-06T04:25:57.249Z,100551.73
2023-05-06T04:27:02.084Z,100563.03
2023-05-06T04:28:05.373Z,100564.66
2023-05-06T04:29:08.732Z,100562.97
2023-05-06T04:30:13.553Z,100562.97
2023-05-06T04:31:16.407Z,100555.22
2023-05-06T04:32:22.608Z,100557.86
2023-05-06T04:33:25.160Z,100564.80
2023-05-06T04:34:28.260Z,100566.45
2023-05-06T04:35:31.793Z,100559.48
2023-05-06T04:36:34.671Z,100567.23
2023-05-06T04:37:54.159Z,100567.98
2023-05-06T04:38:58.430Z,100567.05
2023-05-06T04:40:02.421Z,100568.70
2023-05-06T04:41:05.513Z,100558.39
2023-05-06T04:42:08.459Z,100568.86
2023-05-06T04:43:12.768Z,100557.62
2023-05-06T04:44:16.678Z,100573.13
2023-05-06T04:45:21.167Z,100578.42
2023-05-06T04:46:24.824Z,100569.04
2023-05-06T04:47:27.920Z,100580.13
2023-05-06T04:48:30.987Z,100577.48
2023-05-06T04:49:33.893Z,100574.90
2023-05-06T04:50:36.727Z,100585.23
2023-05-06T04:51:38.982Z,100580.97
2023-05-06T04:52:41.517Z,100586.05
2023-05-06T04:53:43.832Z,100581.84
2023-05-06T04:54:46.548Z,100580.06
2023-05-06T04:55:48.973Z,100580.94
2023-05-06T04:56:51.688Z,100578.42
2023-05-06T04:57:55.333Z,100580.16
2023-05-06T04:58:57.786Z,100581.84
2023-05-06T05:00:00.685Z,100580.97
2023-05-06T05:01:09.342Z,100583.49
2023-05-06T05:02:11.917Z,100585.17
2023-05-06T05:03:15.241Z,100568.70
2023-05-06T05:04:17.996Z,100575.61
2023-05-06T05:05:20.506Z,100578.98
2023-05-06T05:06:24.701Z,100578.95
2023-05-06T05:07:28.277Z,100583.18
2023-05-06T05:08:30.594Z,100576.16
2023-05-06T05:09:34.032Z,100573.52
2023-05-06T05:10:37.392Z,100577.00
2023-05-06T05:11:40.075Z,100583.14
2023-05-06T05:12:42.341Z,100577.10
2023-05-06T05:13:44.839Z,100578.01
2023-05-06T05:14:47.695Z,100577.91
2023-05-06T05:15:55.318Z,100578.65
2023-05-06T05:16:59.198Z,100580.33
2023-05-06T05:18:01.781Z,100580.19
2023-05-06T05:19:04.923Z,100583.61
2023-05-06T05:20:10.073Z,100582.74
2023-05-06T05:21:13.209Z,100584.48
2023-05-06T05:22:16.084Z,100587.84
2023-05-06T05:23:19.602Z,100579.11
2023-05-06T05:24:22.571Z,100584.20
2023-05-06T05:25:25.278Z,100584.28
2023-05-06T05:26:28.177Z,100580.99
2023-05-06T05:27:30.477Z,100582.59
2023-05-06T05:28:33.046Z,100590.25
2023-05-06T05:29:37.548Z,100593.75
2023-05-06T05:30:41.401Z,100592.11
2023-05-06T05:31:45.045Z,100582.53
2023-05-06T05:32:48.160Z,100585.88
2023-05-06T05:33:52.134Z,100584.09
2023-05-06T05:34:56.684Z,100574.66
2023-05-06T05:36:00.211Z,100584.86
2023-05-06T05:37:04.001Z,100582.20
2023-05-06T05:38:08.197Z,100576.94
2023-05-06T05:39:10.971Z,100589.05
2023-05-06T05:40:17.050Z,100591.56
2023-05-06T05:41:19.932Z,100593.16
2023-05-06T05:42:23.019Z,100585.31
2023-05-06T05:43:27.117Z,100584.41
2023-05-06T05:44:30.458Z,100586.00
2023-05-06T05:45:33.840Z,100588.59
2023-05-06T05:46:36.989Z,100585.95
2023-05-06T05:47:39.757Z,100583.28
2023-05-06T05:48:42.737Z,100583.12
2023-05-06T05:49:46.537Z,100583.08
2023-05-06T05:50:49.167Z,100581.23
2023-05-06T05:51:52.530Z,100585.46
2023-05-06T05:52:55.723Z,100584.53
2023-05-06T05:53:58.561Z,100587.00
2023-05-06T05:55:01.173Z,100585.20
2023-05-06T05:56:04.846Z,100581.52
2023-05-06T05:57:07.295Z,100585.86
2023-05-06T05:58:14.333Z,100593.55
2023-05-06T05:59:18.511Z,100583.27
2023-05-06T06:00:22.370Z,100581.69
2023-05-06T06:01:26.851Z,100585.86
2023-05-06T06:02:29.833Z,100588.45
2023-05-06T06:03:33.213Z,100589.28
2023-05-06T06:04:36.406Z,100589.19
2023-05-06T06:05:40.375Z,100592.66
2023-05-06T06:06:43.481Z,100585.77
2023-05-06T06:07:46.661Z,100589.33
2023-05-06T06:08:49.526Z,100591.92
2023-05-06T06:09:52.412Z,100591.00
2023-05-06T06:10:56.648Z,100594.38
2023-05-06T06:12:01.510Z,100596.80
2023-05-06T06:13:05.969Z,100597.53
2023-05-06T06:14:08.734Z,100596.66
2023-05-06T06:15:11.746Z,100590.54
2023-05-06T06:16:16.374Z,100590.54
2023-05-06T06:17:18.952Z,100608.45
2023-05-06T06:18:21.768Z,100606.74
2023-05-06T06:19:27.953Z,100605.72
2023-05-06T06:20:32.197Z,100605.47
2023-05-06T06:21:34.925Z,100605.41
2023-05-06T06:22:37.401Z,100613.27
2023-05-06T06:23:40.974Z,100609.00
2023-05-06T06:24:44.009Z,100609.00
2023-05-06T06:25:47.544Z,100605.47
2023-05-06T06:26:49.829Z,100615.78
2023-05-06T06:27:56.244Z,100608.74
2023-05-06T06:28:58.986Z,100610.07
2023-05-06T06:30:02.090Z,100610.22
2023-05-06T06:31:05.191Z,100609.38
2023-05-06T06:32:09.902Z,100613.70
2023-05-06T06:33:13.785Z,100610.30
2023-05-06T06:34:16.587Z,100615.51
2023-05-06T06:35:20.028Z,100625.05
2023-05-06T06:36:22.960Z,100608.51
2023-05-06T06:37:27.155Z,100629.20
2023-05-06T06:38:29.788Z,100616.52
2023-05-06T06:39:33.209Z,100611.62
2023-05-06T06:40:39.369Z,100614.98
2023-05-06T06:41:42.329Z,100615.41
2023-05-06T06:42:46.973Z,100613.75
2023-05-06T06:44:08.087Z,100608.92
2023-05-06T06:45:12.918Z,100613.02
2023-05-06T06:46:16.362Z,100612.86
2023-05-06T06:47:18.776Z,100615.78
2023-05-06T06:48:22.726Z,100612.19
2023-05-06T06:49:25.904Z,100620.38
2023-05-06T06:50:29.017Z,100617.95
2023-05-06T06:51:31.792Z,100615.14
2023-05-06T06:52:35.396Z,100616.64
2023-05-06T06:53:39.162Z,100626.36
2023-05-06T06:54:42.320Z,100619.72
2023-05-06T06:55:47.346Z,100624.23
2023-05-06T06:56:51.405Z,100615.36
2023-05-06T06:57:53.692Z,100611.77
2023-05-06T06:58:56.518Z,100613.89
2023-05-06T06:59:59.031Z,100629.23
2023-05-06T07:01:01.177Z,100616.41
2023-05-06T07:02:03.581Z,100621.34
2023-05-06T07:03:05.738Z,100619.91
2023-05-06T07:04:08.934Z,100613.81
2023-05-06T07:05:12.777Z,100619.05
2023-05-06T07:06:16.497Z,100616.22
2023-05-06T07:07:18.773Z,100620.22
2023-05-06T07:08:22.782Z,100613.13
2023-05-06T07:09:26.151Z,100616.40
2023-05-06T07:10:29.647Z,100623.20
2023-05-06T07:11:32.103Z,100617.16
2023-05-06T07:12:35.593Z,100619.00
2023-05-06T07:13:39.091Z,100619.05
2023-05-06T07:14:42.464Z,100619.89
2023-05-06T07:15:45.232Z,100621.77
2023-05-06T07:16:49.988Z,100616.64
2023-05-06T07:17:52.337Z,100616.91
2023-05-06T07:18:55.898Z,100618.56
2023-05-06T07:19:58.161Z,100618.69
2023-05-06T07:21:01.739Z,100618.61
2023-05-06T07:22:05.270Z,100625.42
2023-05-06T07:23:07.792Z,100621.05
2023-05-06T07:24:10.259Z,100618.47
2023-05-06T07:25:12.793Z,100618.34
2023-05-06T07:26:15.991Z,100621.94
2023-05-06T07:27:18.302Z,100617.51
2023-05-06T07:28:20.625Z,100619.23
2023-05-06T07:29:23.235Z,100618.34
2023-05-06T07:30:25.882Z,100622.94
2023-05-06T07:31:29.950Z,100613.32
2023-05-06T07:32:32.956Z,100626.07
2023-05-06T07:33:35.245Z,100625.01
2023-05-06T07:34:38.378Z,100626.55
2023-05-06T07:35:41.123Z,100624.84
2023-05-06T07:36:44.451Z,100627.50
2023-05-06T07:37:47.121Z,100625.01
2023-05-06T07:38:50.510Z,100621.42
2023-05-06T07:39:53.895Z,100621.42
2023-05-06T07:40:56.474Z,100630.68
2023-05-06T07:41:59.541Z,100621.94
2023-05-06T07:43:04.117Z,100631.39
2023-05-06T07:44:06.910Z,100625.25
2023-05-06T07:45:11.192Z,100628.62
2023-05-06T07:46:14.446Z,100629.69
2023-05-06T07:47:29.094Z,100625.30
2023-05-06T07:48:35.886Z,100631.39
2023-05-06T07:49:38.767Z,100631.29
2023-05-06T07:50:41.327Z,100626.02
2023-05-06T07:51:43.925Z,100636.16
2023-05-06T07:52:47.257Z,100628.19
2023-05-06T07:53:50.341Z,100639.22
2023-05-06T07:54:53.270Z,100625.03
2023-05-06T07:55:59.285Z,100619.75
2023-05-06T07:57:02.270Z,100624.84
2023-05-06T07:58:05.569Z,100620.59
2023-05-06T07:59:07.880Z,100629.20
2023-05-06T08:00:12.218Z,100630.94
2023-05-06T08:01:20.984Z,100631.75
2023-05-06T08:02:23.712Z,100628.18
2023-05-06T08:03:27.404Z,100626.31
2023-05-06T08:04:30.196Z,100631.88
2023-05-06T08:05:32.719Z,100634.41
2023-05-06T08:06:34.948Z,100627.50
2023-05-06T08:07:37.668Z,100633.37
2023-05-06T08:08:40.088Z,100633.41
2023-05-06T08:09:42.410Z,100634.41
2023-05-06T08:10:45.256Z,100635.36
2023-05-06T08:11:49.173Z,100628.26
2023-05-06T08:12:53.095Z,100637.91
2023-05-06T08:13:55.685Z,100636.25
2023-05-06T08:14:58.859Z,100642.42
2023-05-06T08:16:02.701Z,100639.74
2023-05-06T08:17:05.127Z,100638.03
2023-05-06T08:18:20.955Z,100638.73
2023-05-06T08:19:11.370Z,100636.12
2023-05-06T08:20:14.964Z,100642.95
2023-05-06T08:21:17.212Z,100639.32
2023-05-06T08:22:19.234Z,100635.02
2023-05-06T08:23:21.239Z,100640.97
2023-05-06T08:24:23.546Z,100641.54
2023-05-06T08:25:25.871Z,100641.15
2023-05-06T08:26:28.350Z,100642.91
2023-05-06T08:27:31.027Z,100648.62
2023-05-06T08:28:33.373Z,100637.25
2023-05-06T08:29:35.586Z,100646.08
2023-05-06T08:30:38.013Z,100639.97
2023-05-06T08:31:40.477Z,100644.44
2023-05-06T08:32:43.283Z,100640.47
2023-05-06T08:33:45.886Z,100639.36
2023-05-06T08:34:48.225Z,100642.19
2023-05-06T08:35:51.121Z,100639.75
2023-05-06T08:36:53.573Z,100651.30
2023-05-06T08:37:56.117Z,100641.84
2023-05-06T08:38:59.311Z,100640.75
2023-05-06T08:40:02.597Z,100639.16
2023-05-06T08:41:12.429Z,100640.87
2023-05-06T08:42:14.778Z,100640.67
2023-05-06T08:43:20.731Z,100642.27
2023-05-06T08:44:24.097Z,100631.30
2023-05-06T08:45:28.685Z,100636.36
2023-05-06T08:46:31.352Z,100626.64
2023-05-06T08:47:34.298Z,100626.64
2023-05-06T08:48:37.864Z,100642.75
2023-05-06T08:49:40.218Z,100649.44
2023-05-06T08:50:43.195Z,100653.69
2023-05-06T08:51:47.109Z,100645.27
2023-05-06T08:52:50.692Z,100640.81
2023-05-06T08:53:54.656Z,100646.11
2023-05-06T08:55:00.311Z,100637.25
2023-05-06T08:56:05.816Z,100640.47
2023-05-06T08:57:12.526Z,100635.61
2023-05-06T08:58:17.596Z,100638.67
2023-05-06T08:59:23.395Z,100643.77
2023-05-06T09:00:26.758Z,100646.02
2023-05-06T09:01:29.261Z,100647.46
2023-05-06T09:02:32.817Z,100644.98
2023-05-06T09:03:35.326Z,100647.77
2023-05-06T09:04:38.167Z,100652.23
2023-05-06T09:05:40.567Z,100652.23
2023-05-06T09:06:42.969Z,100654.86
2023-05-06T09:07:45.878Z,100656.36
2023-05-06T09:08:47.992Z,100657.37
2023-05-06T09:09:51.734Z,100651.05
2023-05-06T09:10:54.119Z,100667.13
2023-05-06T09:11:57.921Z,100660.61
2023-05-06T09:13:00.495Z,100660.69
2023-05-06T09:14:15.154Z,100653.72
2023-05-06T09:15:17.533Z,100659.55
2023-05-06T09:16:30.291Z,100655.03
2023-05-06T09:17:32.919Z,100656.11
2023-05-06T09:18:36.759Z,100656.89
2023-05-06T09:19:39.838Z,100656.89
2023-05-06T09:20:44.772Z,100652.42
2023-05-06T09:21:49.735Z,100650.69
2023-05-06T09:22:55.473Z,100650.53
2023-05-06T09:23:58.505Z,100652.64
2023-05-06T09:25:01.024Z,100654.02
2023-05-06T09:26:03.712Z,100658.78
2023-05-06T09:27:08.418Z,100649.77
2023-05-06T09:28:13.871Z,100647.55
2023-05-06T09:29:16.259Z,100653.91
2023-05-06T09:30:20.014Z,100647.64
2023-05-06T09:31:23.488Z,100648.17
2023-05-06T09:32:26.353Z,100647.05
2023-05-06T09:33:29.903Z,100644.56
2023-05-06T09:34:32.894Z,100655.09
2023-05-06T09:35:40.167Z,100652.58
2023-05-06T09:36:42.456Z,100644.82
2023-05-06T09:37:44.736Z,100646.23
2023-05-06T09:38:47.302Z,100640.13
2023-05-06T09:39:53.589Z,100642.95
2023-05-06T09:40:56.524Z,100638.71
2023-05-06T09:41:59.471Z,100646.38
2023-05-06T09:43:03.411Z,100643.61
2023-05-06T09:44:05.842Z,100647.36
2023-05-06T09:45:10.405Z,100649.97
2023-05-06T09:46:13.970Z,100645.16
2023-05-06T09:47:16.588Z,100649.71
2023-05-06T09:48:19.194Z,100654.47
2023-05-06T09:49:21.845Z,100646.31
2023-05-06T09:50:25.958Z,100639.37
2023-05-06T09:51:30.498Z,100646.00
2023-05-06T09:52:33.399Z,100640.51
2023-05-06T09:53:37.255Z,100634.02
2023-05-06T09:54:41.706Z,100634.66
2023-05-06T09:55:45.374Z,100640.06
2023-05-06T09:56:48.447Z,100643.98
2023-05-06T09:57:51.519Z,100636.00
2023-05-06T09:58:55.861Z,100634.16
2023-05-06T10:00:00.180Z,100634.16
2023-05-06T10:01:06.248Z,100628.05
2023-05-06T10:02:10.782Z,100629.39
2023-05-06T10:03:18.030Z,100639.31
2023-05-06T10:04:26.248Z,100632.33
2023-05-06T10:05:30.559Z,100633.92
2023-05-06T10:06:35.073Z,100635.39
2023-05-06T10:07:39.497Z,100636.54
2023-05-06T10:08:45.455Z,100637.44
2023-05-06T10:09:50.701Z,100632.22
2023-05-06T10:10:53.253Z,100636.70
2023-05-06T10:11:55.670Z,100633.69
2023-05-06T10:12:58.111Z,100647.33
2023-05-06T10:14:01.361Z,100637.70
2023-05-06T10:15:05.839Z,100635.99
2023-05-06T10:16:11.155Z,100636.72
2023-05-06T10:17:15.444Z,100641.66
2023-05-06T10:18:20.135Z,100629.80
2023-05-06T10:19:26.053Z,100634.91
2023-05-06T10:20:33.517Z,100632.79
2023-05-06T10:21:38.539Z,100639.23
2023-05-06T10:23:02.758Z,100631.16
2023-05-06T10:24:08.507Z,100641.59
2023-05-06T10:25:30.305Z,100640.00
2023-05-06T10:26:36.445Z,100631.50
2023-05-06T10:27:42.215Z,100632.86
2023-05-06T10:28:49.569Z,100633.92
2023-05-06T10:29:55.387Z,100634.31
2023-05-06T10:30:59.323Z,100635.63
2023-05-06T10:32:03.615Z,100635.63
2023-05-06T10:33:11.205Z,100638.54
2023-05-06T10:34:16.526Z,100631.50
2023-05-06T10:35:42.250Z,100640.60
2023-05-06T10:36:48.001Z,100641.03
2023-05-06T10:37:52.425Z,100646.08
2023-05-06T10:38:57.518Z,100641.83
2023-05-06T10:40:02.263Z,100631.06
2023-05-06T10:41:06.592Z,100637.16
2023-05-06T10:42:10.781Z,100637.09
2023-05-06T10:43:22.258Z,100641.80
2023-05-06T10:44:46.126Z,100641.55
2023-05-06T10:46:08.391Z,100644.95
2023-05-06T10:47:11.127Z,100642.73
2023-05-06T10:48:14.495Z,100643.00
2023-05-06T10:49:17.746Z,100642.73
2023-05-06T10:50:24.770Z,100639.22
2023-05-06T10:51:28.121Z,100639.87
2023-05-06T10:52:46.663Z,100641.27
2023-05-06T10:54:04.087Z,100638.44
2023-05-06T10:55:10.990Z,100634.00
2023-05-06T10:56:14.956Z,100641.84
2023-05-06T10:57:17.650Z,100636.00
2023-05-06T10:58:20.566Z,100628.33
2023-05-06T10:59:30.077Z,100631.58
2023-05-06T11:00:34.077Z,100636.61
2023-05-06T11:01:43.015Z,100641.28
2023-05-06T11:02:47.467Z,100640.02
2023-05-06T11:03:51.189Z,100629.31
2023-05-06T11:04:57.053Z,100629.31
2023-05-06T11:05:59.372Z,100636.20
2023-05-06T11:07:11.069Z,100635.57
2023-05-06T11:08:14.571Z,100631.62
2023-05-06T11:09:23.348Z,100632.39
2023-05-06T11:10:33.999Z,100635.58
2023-05-06T11:12:02.903Z,100638.33
2023-05-06T11:13:27.066Z,100632.27
2023-05-06T11:14:34.861Z,100631.39
2023-05-06T11:15:39.850Z,100639.66
2023-05-06T11:16:50.627Z,100639.74
2023-05-06T11:17:55.694Z,100639.40
2023-05-06T11:18:58.543Z,100643.23
2023-05-06T11:20:22.223Z,100632.39
2023-05-06T11:21:34.477Z,100644.77
2023-05-06T11:22:43.110Z,100625.33
2023-05-06T11:23:48.913Z,100631.48
2023-05-06T11:24:51.139Z,100629.77
2023-05-06T11:25:56.820Z,100630.59
2023-05-06T11:27:00.655Z,100628.33
2023-05-06T11:28:07.504Z,100633.92
2023-05-06T11:29:09.996Z,100627.20
2023-05-06T11:30:15.317Z,100618.34
2023-05-06T11:31:18.592Z,100620.61
2023-05-06T11:32:24.571Z,100619.61
2023-05-06T11:33:29.759Z,100622.00
2023-05-06T11:34:34.774Z,100634.22
2023-05-06T11:35:37.726Z,100624.80
2023-05-06T11:37:03.961Z,100631.66
2023-05-06T11:38:06.305Z,100622.53
2023-05-06T11:39:08.868Z,100610.66
2023-05-06T11:40:15.426Z,100608.05
2023-05-06T11:41:19.135Z,100605.38
2023-05-06T11:42:27.033Z,100601.17
2023-05-06T11:43:29.729Z,100604.00
2023-05-06T11:44:35.737Z,100599.91
2023-05-06T11:45:44.299Z,100602.69
2023-05-06T11:46:49.925Z,100597.69
2023-05-06T11:47:54.601Z,100597.88
2023-05-06T11:48:57.003Z,100598.03
2023-05-06T11:50:01.337Z,100598.95
2023-05-06T11:51:03.783Z,100605.49
2023-05-06T11:52:07.201Z,100606.78
2023-05-06T11:53:09.380Z,100604.58
2023-05-06T11:54:11.715Z,100602.55
2023-05-06T11:55:14.705Z,100603.81
2023-05-06T11:56:17.085Z,100598.71
2023-05-06T11:57:20.343Z,100583.55
2023-05-06T11:58:29.193Z,100590.36
2023-05-06T11:59:38.282Z,100597.15
2023-05-06T12:00:51.173Z,100590.36
2023-05-06T12:01:53.829Z,100591.55
2023-05-06T12:02:57.550Z,100594.08
2023-05-06T12:04:02.025Z,100589.91
2023-05-06T12:05:05.968Z,100593.65
2023-05-06T12:06:09.310Z,100582.38
2023-05-06T12:07:14.267Z,100595.50
2023-05-06T12:08:28.076Z,100590.59
2023-05-06T12:09:29.402Z,100592.72
2023-05-06T12:10:33.400Z,100596.52
2023-05-06T12:11:37.352Z,100593.14
2023-05-06T12:12:40.987Z,100586.58
2023-05-06T12:13:44.060Z,100590.55
2023-05-06T12:14:47.554Z,100591.62
2023-05-06T12:15:50.889Z,100584.66